createdAt,value
2022-10-30T00:00:04.147Z,16.18
2022-10-30T00:01:04.127Z,16.24
2022-10-30T00:02:04.231Z,16.22
2022-10-30T00:03:04.348Z,16.22
2022-10-30T00:04:04.081Z,16.18
2022-10-30T00:05:04.065Z,16.22
2022-10-30T00:06:04.087Z,16.14
2022-10-30T00:07:04.055Z,16.14
2022-10-30T00:08:04.074Z,16.16
2022-10-30T00:09:04.025Z,16.14
2022-10-30T00:10:04.014Z,16.09
2022-10-30T00:11:04.014Z,16.13
2022-10-30T00:12:04.017Z,16.06
2022-10-30T00:13:04.000Z,16.06
2022-10-30T00:14:03.974Z,16.08
2022-10-30T00:15:03.970Z,16.16
2022-10-30T00:16:03.979Z,16.09
2022-10-30T00:17:03.935Z,16.06
2022-10-30T00:18:03.949Z,16.10
2022-10-30T00:19:03.921Z,16.06
2022-10-30T00:20:03.903Z,16.05
2022-10-30T00:21:03.903Z,16.02
2022-10-30T00:22:32.865Z,16.10
2022-10-30T00:23:32.845Z,16.03
2022-10-30T00:24:32.836Z,16.00
2022-10-30T00:25:32.826Z,16.02
2022-10-30T00:26:32.813Z,16.02
2022-10-30T00:27:32.827Z,16.02
2022-10-30T00:28:32.792Z,15.98
2022-10-30T00:29:32.776Z,16.00
2022-10-30T00:30:32.767Z,16.03
2022-10-30T00:31:32.774Z,15.95
2022-10-30T00:32:32.763Z,16.00
2022-10-30T00:33:32.737Z,15.96
2022-10-30T00:34:32.728Z,16.00
2022-10-30T00:35:32.843Z,16.00
2022-10-30T00:36:32.705Z,15.93
2022-10-30T00:37:32.713Z,15.95
2022-10-30T00:38:32.702Z,15.98
2022-10-30T00:39:32.680Z,15.98
2022-10-30T00:40:32.659Z,15.99
2022-10-30T00:41:32.668Z,16.00
2022-10-30T00:42:32.636Z,15.98
2022-10-30T00:43:32.672Z,15.88
2022-10-30T00:44:32.612Z,15.96
2022-10-30T00:45:32.602Z,15.85
2022-10-30T00:46:32.590Z,15.88
2022-10-30T00:47:32.606Z,15.90
2022-10-30T00:48:32.593Z,15.84
2022-10-30T00:49:32.557Z,15.87
2022-10-30T00:50:32.573Z,15.87
2022-10-30T00:51:32.566Z,15.91
2022-10-30T00:52:32.530Z,15.88
2022-10-30T00:53:32.510Z,15.87
2022-10-30T00:54:32.502Z,15.90
2022-10-30T00:55:32.488Z,15.84
2022-10-30T00:56:32.482Z,15.88
2022-10-30T00:57:32.495Z,15.87
2022-10-30T00:58:32.475Z,15.81
2022-10-30T00:59:32.452Z,15.85
2022-10-30T01:00:32.437Z,15.84
2022-10-30T01:01:32.636Z,15.76
2022-10-30T01:02:32.552Z,15.84
2022-10-30T01:03:32.439Z,15.84
2022-10-30T01:04:32.392Z,15.76
2022-10-30T01:05:32.409Z,15.78
2022-10-30T01:06:32.374Z,15.80
2022-10-30T01:07:32.363Z,15.70
2022-10-30T01:08:32.426Z,15.77
2022-10-30T01:09:32.341Z,15.80
2022-10-30T01:10:32.330Z,15.81
2022-10-30T01:11:32.315Z,15.77
2022-10-30T01:12:32.335Z,15.70
2022-10-30T01:13:32.292Z,15.77
2022-10-30T01:14:32.281Z,15.76
2022-10-30T01:15:32.273Z,15.76
2022-10-30T01:16:32.265Z,15.76
2022-10-30T01:17:32.251Z,15.69
2022-10-30T01:18:32.262Z,15.72
2022-10-30T01:19:32.253Z,15.73
2022-10-30T01:20:32.239Z,15.66
2022-10-30T01:21:32.205Z,15.70
2022-10-30T01:22:32.196Z,15.62
2022-10-30T01:23:32.205Z,15.68
2022-10-30T01:24:32.175Z,15.62
2022-10-30T01:25:32.164Z,15.62
2022-10-30T01:26:32.151Z,15.69
2022-10-30T01:27:32.145Z,15.65
2022-10-30T01:28:32.154Z,15.68
2022-10-30T01:29:32.126Z,15.59
2022-10-30T01:30:32.105Z,15.58
2022-10-30T01:31:32.125Z,15.60
2022-10-30T01:32:32.088Z,15.59
2022-10-30T01:33:32.074Z,15.54
2022-10-30T01:34:32.188Z,15.52
2022-10-30T01:35:32.100Z,15.60
2022-10-30T01:36:32.149Z,15.58
2022-10-30T01:37:32.033Z,15.50
2022-10-30T01:38:32.019Z,15.54
2022-10-30T01:39:32.016Z,15.56
2022-10-30T01:40:31.999Z,15.58
2022-10-30T01:41:32.010Z,15.56
2022-10-30T01:42:32.011Z,15.54
2022-10-30T01:43:31.964Z,15.54
2022-10-30T01:44:31.958Z,15.52
2022-10-30T01:45:31.941Z,15.43
2022-10-30T01:46:31.935Z,15.47
2022-10-30T01:47:31.924Z,15.44
2022-10-30T01:48:31.935Z,15.51
2022-10-30T01:49:31.900Z,15.52
2022-10-30T01:50:31.907Z,15.47
2022-10-30T01:51:31.918Z,15.51
2022-10-30T01:52:31.888Z,15.47
2022-10-30T01:53:31.877Z,15.48
2022-10-30T01:54:31.856Z,15.43
2022-10-30T01:55:31.852Z,15.47
2022-10-30T01:56:31.873Z,15.47
2022-10-30T01:57:31.818Z,15.44
2022-10-30T01:58:31.827Z,15.38
2022-10-30T01:59:31.793Z,15.48
2022-10-30T02:00:31.779Z,15.41
2022-10-30T02:01:32.013Z,15.44
2022-10-30T02:02:31.948Z,15.45
2022-10-30T02:03:31.778Z,15.44
2022-10-30T02:04:31.738Z,15.45
2022-10-30T02:05:31.733Z,15.48
2022-10-30T02:06:31.719Z,15.35
2022-10-30T02:07:31.725Z,15.41
2022-10-30T02:08:31.714Z,15.38
2022-10-30T02:09:31.692Z,15.32
2022-10-30T02:10:31.672Z,15.32
2022-10-30T02:11:31.685Z,15.35
2022-10-30T02:12:31.655Z,15.30
2022-10-30T02:13:31.663Z,15.25
2022-10-30T02:14:31.635Z,15.33
2022-10-30T02:15:31.622Z,15.25
2022-10-30T02:16:31.630Z,15.32
2022-10-30T02:17:31.594Z,15.29
2022-10-30T02:18:31.666Z,15.30
2022-10-30T02:19:31.578Z,15.30
2022-10-30T02:20:31.574Z,15.29
2022-10-30T02:21:31.563Z,15.23
2022-10-30T02:22:31.656Z,15.27
2022-10-30T02:23:31.559Z,15.33
2022-10-30T02:24:31.533Z,15.27
2022-10-30T02:25:31.514Z,15.17
2022-10-30T02:26:31.500Z,15.10
2022-10-30T02:27:31.515Z,15.19
2022-10-30T02:28:31.479Z,15.22
2022-10-30T02:29:31.470Z,15.14
2022-10-30T02:30:31.461Z,15.14
2022-10-30T02:31:31.462Z,15.14
2022-10-30T02:32:31.459Z,15.19
2022-10-30T02:33:31.444Z,15.14
2022-10-30T02:34:31.414Z,15.15
2022-10-30T02:35:31.406Z,15.19
2022-10-30T02:36:31.397Z,15.10
2022-10-30T02:37:31.433Z,15.10
2022-10-30T02:38:31.369Z,15.07
2022-10-30T02:39:31.399Z,15.07
2022-10-30T02:40:31.350Z,15.05
2022-10-30T02:41:31.341Z,15.07
2022-10-30T02:42:31.325Z,15.07
2022-10-30T02:43:31.329Z,15.08
2022-10-30T02:44:31.328Z,15.08
2022-10-30T02:45:31.297Z,15.10
2022-10-30T02:46:31.284Z,15.05
2022-10-30T02:47:31.277Z,15.07
2022-10-30T02:48:31.286Z,15.01
2022-10-30T02:49:31.252Z,15.01
2022-10-30T02:50:31.243Z,15.05
2022-10-30T02:51:31.230Z,15.10
2022-10-30T02:52:31.222Z,14.99
2022-10-30T02:53:31.234Z,15.03
2022-10-30T02:54:31.196Z,14.97
2022-10-30T02:55:31.211Z,14.99
2022-10-30T02:56:31.173Z,14.93
2022-10-30T02:57:31.166Z,14.92
2022-10-30T02:58:31.176Z,14.95
2022-10-30T02:59:31.146Z,14.92
2022-10-30T03:00:31.134Z,14.92
2022-10-30T03:01:31.269Z,14.89
2022-10-30T03:02:31.136Z,14.89
2022-10-30T03:03:31.102Z,14.99
2022-10-30T03:04:31.087Z,14.89
2022-10-30T03:05:31.078Z,14.87
2022-10-30T03:06:31.067Z,14.83
2022-10-30T03:07:31.062Z,14.90
2022-10-30T03:08:31.072Z,14.87
2022-10-30T03:09:31.037Z,14.82
2022-10-30T03:10:31.027Z,14.82
2022-10-30T03:11:31.035Z,14.79
2022-10-30T03:12:31.002Z,14.85
2022-10-30T03:13:31.013Z,14.74
2022-10-30T03:14:31.004Z,14.71
2022-10-30T03:15:30.968Z,14.85
2022-10-30T03:16:30.957Z,14.78
2022-10-30T03:17:31.049Z,14.77
2022-10-30T03:18:30.932Z,14.69
2022-10-30T03:19:30.944Z,14.77
2022-10-30T03:20:30.910Z,14.74
2022-10-30T03:21:30.906Z,14.78
2022-10-30T03:22:30.893Z,14.70
2022-10-30T03:23:30.880Z,14.69
2022-10-30T03:24:30.887Z,14.69
2022-10-30T03:25:30.865Z,14.66
2022-10-30T03:26:30.853Z,14.58
2022-10-30T03:27:30.855Z,14.61
2022-10-30T03:28:30.825Z,14.58
2022-10-30T03:29:30.832Z,14.64
2022-10-30T03:30:30.808Z,14.63
2022-10-30T03:31:30.822Z,14.70
2022-10-30T03:32:30.780Z,14.61
2022-10-30T03:33:30.773Z,14.58
2022-10-30T03:34:30.760Z,14.61
2022-10-30T03:35:30.747Z,14.58
2022-10-30T03:36:30.753Z,14.66
2022-10-30T03:37:30.727Z,14.61
2022-10-30T03:38:30.722Z,14.55
2022-10-30T03:39:30.709Z,14.59
2022-10-30T03:40:30.711Z,14.56
2022-10-30T03:41:30.701Z,14.58
2022-10-30T03:42:30.667Z,14.59
2022-10-30T03:43:30.683Z,14.61
2022-10-30T03:44:30.650Z,14.63
2022-10-30T03:45:30.638Z,14.59
2022-10-30T03:46:30.651Z,14.52
2022-10-30T03:47:30.617Z,14.58
2022-10-30T03:48:30.614Z,14.48
2022-10-30T03:49:30.593Z,14.48
2022-10-30T03:50:30.577Z,14.46
2022-10-30T03:51:30.576Z,14.46
2022-10-30T03:52:30.580Z,14.53
2022-10-30T03:53:30.551Z,14.53
2022-10-30T03:54:30.534Z,14.52
2022-10-30T03:55:30.526Z,14.46
2022-10-30T03:56:30.515Z,14.52
2022-10-30T03:57:30.528Z,14.48
2022-10-30T03:58:30.495Z,14.44
2022-10-30T03:59:30.502Z,14.45
2022-10-30T04:00:30.475Z,14.48
2022-10-30T04:01:30.589Z,14.46
2022-10-30T04:02:30.472Z,14.45
2022-10-30T04:03:30.435Z,14.53
2022-10-30T04:04:30.428Z,14.45
2022-10-30T04:05:30.418Z,14.48
2022-10-30T04:06:30.406Z,14.46
2022-10-30T04:07:30.419Z,14.37
2022-10-30T04:08:30.386Z,14.45
2022-10-30T04:09:30.374Z,14.48
2022-10-30T04:10:30.358Z,14.40
2022-10-30T04:11:30.509Z,14.37
2022-10-30T04:12:30.363Z,14.36
2022-10-30T04:13:30.331Z,14.38
2022-10-30T04:14:30.321Z,14.44
2022-10-30T04:15:30.327Z,14.45
2022-10-30T04:16:30.294Z,14.40
2022-10-30T04:17:30.317Z,14.38
2022-10-30T04:18:30.274Z,14.38
2022-10-30T04:19:30.260Z,14.44
2022-10-30T04:20:30.249Z,14.44
2022-10-30T04:21:30.243Z,14.36
2022-10-30T04:22:30.235Z,14.44
2022-10-30T04:23:30.239Z,14.37
2022-10-30T04:24:30.206Z,14.45
2022-10-30T04:25:30.198Z,14.44
2022-10-30T04:26:30.183Z,14.40
2022-10-30T04:27:30.179Z,14.33
2022-10-30T04:28:30.182Z,14.38
2022-10-30T04:29:30.152Z,14.45
2022-10-30T04:30:30.138Z,14.40
2022-10-30T04:31:30.147Z,14.40
2022-10-30T04:32:30.126Z,14.44
2022-10-30T04:33:30.132Z,14.45
2022-10-30T04:34:30.092Z,14.45
2022-10-30T04:35:30.086Z,14.38
2022-10-30T04:36:30.091Z,14.45
2022-10-30T04:37:30.060Z,14.41
2022-10-30T04:38:30.075Z,14.38
2022-10-30T04:39:30.039Z,14.40
2022-10-30T04:40:30.037Z,14.37
2022-10-30T04:41:30.040Z,14.40
2022-10-30T04:42:30.005Z,14.41
2022-10-30T04:43:30.018Z,14.36
2022-10-30T04:44:29.985Z,14.41
2022-10-30T04:45:29.978Z,14.40
2022-10-30T04:46:29.961Z,14.38
2022-10-30T04:47:30.101Z,14.38
2022-10-30T04:48:29.960Z,14.40
2022-10-30T04:49:29.932Z,14.48
2022-10-30T04:50:29.916Z,14.44
2022-10-30T04:51:29.912Z,14.40
2022-10-30T04:52:29.897Z,14.37
2022-10-30T04:53:29.917Z,14.41
2022-10-30T04:54:29.869Z,14.36
2022-10-30T04:55:29.865Z,14.48
2022-10-30T04:56:29.851Z,14.44
2022-10-30T04:57:29.838Z,14.44
2022-10-30T04:58:29.849Z,14.40
2022-10-30T04:59:29.818Z,14.37
2022-10-30T05:00:29.810Z,14.40
2022-10-30T05:01:29.921Z,14.44
2022-10-30T05:02:30.008Z,14.41
2022-10-30T05:03:29.814Z,14.40
2022-10-30T05:04:29.764Z,14.37
2022-10-30T05:05:29.779Z,14.44
2022-10-30T05:06:29.741Z,14.41
2022-10-30T05:07:29.739Z,14.45
2022-10-30T05:08:29.729Z,14.40
2022-10-30T05:09:29.703Z,14.40
2022-10-30T05:10:29.710Z,14.40
2022-10-30T05:11:29.684Z,14.48
2022-10-30T05:12:29.692Z,14.45
2022-10-30T05:13:29.657Z,14.37
2022-10-30T05:14:29.650Z,14.38
2022-10-30T05:15:29.642Z,14.41
2022-10-30T05:16:29.627Z,14.37
2022-10-30T05:18:29.617Z,14.40
2022-10-30T05:19:29.639Z,14.44
2022-10-30T05:20:29.585Z,14.37
2022-10-30T05:21:29.573Z,14.36
2022-10-30T05:22:29.582Z,14.37
2022-10-30T05:23:29.553Z,14.38
2022-10-30T05:24:29.557Z,14.45
2022-10-30T05:25:29.531Z,14.37
2022-10-30T05:26:29.517Z,14.44
2022-10-30T05:27:29.507Z,14.37
2022-10-30T05:28:29.520Z,14.36
2022-10-30T05:29:29.500Z,14.46
2022-10-30T05:30:29.477Z,14.41
2022-10-30T05:31:29.460Z,14.44
2022-10-30T05:32:29.456Z,14.34
2022-10-30T05:33:29.463Z,14.40
2022-10-30T05:34:29.427Z,14.37
2022-10-30T05:35:29.441Z,14.38
2022-10-30T05:36:29.408Z,14.37
2022-10-30T05:37:29.399Z,14.44
2022-10-30T05:38:29.420Z,14.44
2022-10-30T05:39:29.372Z,14.44
2022-10-30T05:40:29.365Z,14.38
2022-10-30T05:41:29.350Z,14.45
2022-10-30T05:42:29.335Z,14.36
2022-10-30T05:43:29.355Z,14.41
2022-10-30T05:44:58.718Z,14.41
2022-10-30T05:45:30.309Z,14.38
2022-10-30T05:46:29.320Z,14.34
2022-10-30T05:47:29.290Z,14.38
2022-10-30T05:48:29.284Z,14.41
2022-10-30T05:49:29.262Z,14.45
2022-10-30T05:50:29.257Z,14.44
2022-10-30T05:51:29.294Z,14.41
2022-10-30T05:52:29.257Z,14.36
2022-10-30T05:53:29.224Z,14.41
2022-10-30T05:54:29.211Z,14.41
2022-10-30T05:55:29.199Z,14.36
2022-10-30T05:56:29.208Z,14.40
2022-10-30T05:57:29.175Z,14.36
2022-10-30T05:58:29.168Z,14.38
2022-10-30T05:59:29.152Z,14.41
2022-10-30T06:00:29.173Z,14.38
2022-10-30T06:01:29.283Z,14.37
2022-10-30T06:02:29.180Z,14.40
2022-10-30T06:03:29.205Z,14.37
2022-10-30T06:04:29.101Z,14.40
2022-10-30T06:05:29.089Z,14.53
2022-10-30T06:06:29.102Z,14.41
2022-10-30T06:07:29.091Z,14.36
2022-10-30T06:08:29.052Z,14.38
2022-10-30T06:09:29.044Z,14.52
2022-10-30T06:10:29.033Z,14.51
2022-10-30T06:11:29.043Z,14.40
2022-10-30T06:12:29.014Z,14.37
2022-10-30T06:13:28.998Z,14.37
2022-10-30T06:14:28.989Z,14.49
2022-10-30T06:15:28.974Z,14.37
2022-10-30T06:16:29.048Z,14.44
2022-10-30T06:17:28.961Z,14.38
2022-10-30T06:18:28.944Z,14.49
2022-10-30T06:19:28.938Z,14.44
2022-10-30T06:20:28.932Z,14.48
2022-10-30T06:21:28.928Z,14.41
2022-10-30T06:22:28.909Z,14.44
2022-10-30T06:23:28.903Z,14.51
2022-10-30T06:24:28.876Z,14.55
2022-10-30T06:25:28.869Z,14.48
2022-10-30T06:26:28.873Z,14.48
2022-10-30T06:27:28.844Z,14.55
2022-10-30T06:28:28.828Z,14.48
2022-10-30T06:29:28.850Z,14.51
2022-10-30T06:30:28.814Z,14.40
2022-10-30T06:31:28.806Z,14.48
2022-10-30T06:32:28.795Z,14.38
2022-10-30T06:33:28.780Z,14.48
2022-10-30T06:34:28.789Z,14.49
2022-10-30T06:35:28.758Z,14.45
2022-10-30T06:36:28.752Z,14.44
2022-10-30T06:37:28.742Z,14.48
2022-10-30T06:38:28.723Z,14.49
2022-10-30T06:39:28.748Z,14.44
2022-10-30T06:40:28.726Z,14.48
2022-10-30T06:41:30.412Z,14.53
2022-10-30T06:42:28.684Z,14.44
2022-10-30T06:43:28.665Z,14.44
2022-10-30T06:44:28.658Z,14.46
2022-10-30T06:45:28.678Z,14.45
2022-10-30T06:46:32.528Z,14.49
2022-10-30T06:47:29.626Z,14.55
2022-10-30T06:48:28.611Z,14.53
2022-10-30T06:49:28.601Z,14.46
2022-10-30T06:50:28.605Z,14.53
2022-10-30T06:51:28.606Z,14.56
2022-10-30T06:52:28.569Z,14.45
2022-10-30T06:53:28.557Z,14.52
2022-10-30T06:54:28.566Z,14.58
2022-10-30T06:55:28.552Z,14.55
2022-10-30T06:56:28.547Z,14.51
2022-10-30T06:57:28.522Z,14.58
2022-10-30T06:58:28.525Z,14.49
2022-10-30T06:59:28.496Z,14.59
2022-10-30T07:00:28.495Z,14.59
2022-10-30T07:01:28.538Z,14.49
2022-10-30T07:02:28.703Z,14.56
2022-10-30T07:03:28.451Z,14.56
2022-10-30T07:04:28.436Z,14.53
2022-10-30T07:05:28.424Z,14.58
2022-10-30T07:06:28.431Z,14.55
2022-10-30T07:07:28.403Z,14.56
2022-10-30T07:08:28.412Z,14.63
2022-10-30T07:09:28.378Z,14.53
2022-10-30T07:10:28.387Z,14.59
2022-10-30T07:11:28.398Z,14.59
2022-10-30T07:12:28.366Z,14.58
2022-10-30T07:13:28.336Z,14.63
2022-10-30T07:14:28.329Z,14.56
2022-10-30T07:15:28.375Z,14.63
2022-10-30T07:16:28.325Z,14.61
2022-10-30T07:17:28.312Z,14.59
2022-10-30T07:18:28.283Z,14.56
2022-10-30T07:19:28.270Z,14.64
2022-10-30T07:20:28.267Z,14.63
2022-10-30T07:21:28.250Z,14.59
2022-10-30T07:22:28.260Z,14.63
2022-10-30T07:23:28.222Z,14.67
2022-10-30T07:24:28.219Z,14.63
2022-10-30T07:25:28.205Z,14.59
2022-10-30T07:26:28.198Z,14.64
2022-10-30T07:27:28.231Z,14.59
2022-10-30T07:28:28.174Z,14.61
2022-10-30T07:29:28.164Z,14.63
2022-10-30T07:30:28.389Z,14.66
2022-10-30T07:31:41.552Z,14.66
2022-10-30T07:32:29.158Z,14.59
2022-10-30T07:33:28.120Z,14.69
2022-10-30T07:34:28.106Z,14.64
2022-10-30T07:35:28.099Z,14.64
2022-10-30T07:36:28.100Z,14.70
2022-10-30T07:37:28.081Z,14.71
2022-10-30T07:38:28.113Z,14.77
2022-10-30T07:39:28.052Z,14.74
2022-10-30T07:40:28.120Z,14.73
2022-10-30T07:41:28.030Z,14.79
2022-10-30T07:42:28.037Z,14.73
2022-10-30T07:43:28.030Z,14.79
2022-10-30T07:44:28.003Z,14.78
2022-10-30T07:45:27.994Z,14.73
2022-10-30T07:46:28.001Z,14.79
2022-10-30T07:47:27.962Z,14.83
2022-10-30T07:48:27.953Z,14.73
2022-10-30T07:49:27.946Z,14.82
2022-10-30T07:50:28.043Z,14.86
2022-10-30T07:51:27.943Z,14.77
2022-10-30T07:52:27.910Z,14.82
2022-10-30T07:53:27.895Z,14.77
2022-10-30T07:54:27.921Z,14.87
2022-10-30T07:55:27.880Z,14.92
2022-10-30T07:56:27.903Z,14.90
2022-10-30T07:57:27.857Z,15.01
2022-10-30T07:58:27.844Z,14.95
2022-10-30T07:59:27.853Z,14.95
2022-10-30T08:00:27.969Z,14.97
2022-10-30T08:01:28.005Z,14.90
2022-10-30T08:02:27.970Z,14.92
2022-10-30T08:03:27.787Z,14.97
2022-10-30T08:04:27.790Z,15.04
2022-10-30T08:05:29.909Z,15.01
2022-10-30T08:06:27.765Z,15.01
2022-10-30T08:07:27.777Z,15.05
2022-10-30T08:08:27.738Z,15.07
2022-10-30T08:09:27.743Z,15.05
2022-10-30T08:10:27.738Z,15.04
2022-10-30T08:11:27.715Z,15.04
2022-10-30T08:12:27.695Z,15.01
2022-10-30T08:13:27.680Z,15.08
2022-10-30T08:14:27.677Z,15.10
2022-10-30T08:15:27.699Z,15.08
2022-10-30T08:16:27.671Z,15.19
2022-10-30T08:17:27.652Z,15.22
2022-10-30T08:18:27.628Z,15.19
2022-10-30T08:19:27.615Z,15.17
2022-10-30T08:20:27.632Z,15.17
2022-10-30T08:21:27.593Z,15.11
2022-10-30T08:22:27.586Z,15.26
2022-10-30T08:23:27.568Z,15.20
2022-10-30T08:24:27.566Z,15.14
2022-10-30T08:25:27.571Z,15.25
2022-10-30T08:26:27.543Z,15.25
2022-10-30T08:27:27.525Z,15.32
2022-10-30T08:28:31.678Z,15.23
2022-10-30T08:29:28.504Z,15.27
2022-10-30T08:30:27.627Z,15.26
2022-10-30T08:31:27.546Z,15.32
2022-10-30T08:32:27.477Z,15.36
2022-10-30T08:33:27.479Z,15.35
2022-10-30T08:34:27.457Z,15.29
2022-10-30T08:35:27.545Z,15.27
2022-10-30T08:36:27.431Z,15.33
2022-10-30T08:37:27.443Z,15.41
2022-10-30T08:38:27.416Z,15.35
2022-10-30T08:39:27.396Z,15.38
2022-10-30T08:40:27.383Z,15.38
2022-10-30T08:41:27.380Z,15.36
2022-10-30T08:42:27.389Z,15.41
2022-10-30T08:43:27.381Z,15.45
2022-10-30T08:44:27.349Z,15.45
2022-10-30T08:45:30.924Z,15.47
2022-10-30T08:46:27.322Z,15.44
2022-10-30T08:47:27.326Z,15.47
2022-10-30T08:48:27.329Z,15.45
2022-10-30T08:49:27.300Z,15.51
2022-10-30T08:50:27.276Z,15.47
2022-10-30T08:51:27.267Z,15.51
2022-10-30T08:52:27.263Z,15.59
2022-10-30T08:53:27.252Z,15.51
2022-10-30T08:54:27.256Z,15.59
2022-10-30T08:55:27.218Z,15.59
2022-10-30T08:56:27.207Z,15.59
2022-10-30T08:57:27.200Z,15.59
2022-10-30T08:58:27.186Z,15.62
2022-10-30T08:59:27.195Z,15.66
2022-10-30T09:00:27.164Z,15.62
2022-10-30T09:01:27.360Z,15.68
2022-10-30T09:02:27.211Z,15.72
2022-10-30T09:03:27.154Z,15.76
2022-10-30T09:04:27.143Z,15.77
2022-10-30T09:05:27.107Z,15.77
2022-10-30T09:06:27.096Z,15.80
2022-10-30T09:07:27.087Z,15.78
2022-10-30T09:08:27.078Z,15.78
2022-10-30T09:09:27.086Z,15.77
2022-10-30T09:10:27.053Z,15.76
2022-10-30T09:11:27.038Z,15.81
2022-10-30T09:12:27.055Z,15.85
2022-10-30T09:13:27.016Z,15.84
2022-10-30T09:14:27.008Z,15.88
2022-10-30T09:15:27.004Z,15.88
2022-10-30T09:16:27.009Z,15.96
2022-10-30T09:17:26.972Z,16.02
2022-10-30T09:18:26.964Z,15.93
2022-10-30T09:19:26.971Z,15.95
2022-10-30T09:20:27.004Z,15.98
2022-10-30T09:21:26.951Z,15.98
2022-10-30T09:22:26.959Z,16.02
2022-10-30T09:23:26.910Z,16.05
2022-10-30T09:24:26.895Z,16.09
2022-10-30T09:25:26.890Z,16.09
2022-10-30T09:26:26.877Z,16.10
2022-10-30T09:27:26.863Z,16.09
2022-10-30T09:28:26.875Z,16.09
2022-10-30T09:29:26.845Z,16.10
2022-10-30T09:30:26.828Z,16.16
2022-10-30T09:31:26.820Z,16.18
2022-10-30T09:32:26.823Z,16.17
2022-10-30T09:33:26.822Z,16.28
2022-10-30T09:35:26.800Z,16.21
2022-10-30T09:36:26.769Z,16.22
2022-10-30T09:37:26.751Z,16.33
2022-10-30T09:38:26.762Z,16.37
2022-10-30T09:39:26.728Z,16.26
2022-10-30T09:40:26.739Z,16.33
2022-10-30T09:41:26.704Z,16.25
2022-10-30T09:42:26.693Z,16.34
2022-10-30T09:43:26.687Z,16.36
2022-10-30T09:44:26.676Z,16.37
2022-10-30T09:45:29.633Z,16.43
2022-10-30T09:46:26.654Z,16.44
2022-10-30T09:47:26.648Z,16.44
2022-10-30T09:48:26.629Z,16.47
2022-10-30T09:49:26.620Z,16.42
2022-10-30T09:50:26.604Z,16.44
2022-10-30T09:51:26.641Z,16.49
2022-10-30T09:52:26.578Z,16.52
2022-10-30T09:53:26.576Z,16.58
2022-10-30T09:54:26.563Z,16.47
2022-10-30T09:55:26.555Z,16.59
2022-10-30T09:56:26.558Z,16.57
2022-10-30T09:57:26.531Z,16.65
2022-10-30T09:58:26.513Z,16.65
2022-10-30T09:59:26.524Z,16.65
2022-10-30T10:00:26.490Z,16.62
2022-10-30T10:01:26.621Z,16.69
2022-10-30T10:02:26.643Z,16.70
2022-10-30T10:03:26.465Z,16.67
2022-10-30T10:04:27.147Z,16.65
2022-10-30T10:05:26.440Z,16.72
2022-10-30T10:06:26.426Z,16.65
2022-10-30T10:07:26.431Z,16.69
2022-10-30T10:08:26.405Z,16.69
2022-10-30T10:09:26.416Z,16.74
2022-10-30T10:10:26.382Z,16.74
2022-10-30T10:11:26.377Z,16.76
2022-10-30T10:12:26.368Z,16.73
2022-10-30T10:13:26.354Z,16.83
2022-10-30T10:14:26.376Z,16.87
2022-10-30T10:15:26.328Z,16.92
2022-10-30T10:16:26.316Z,16.84
2022-10-30T10:17:26.308Z,16.90
2022-10-30T10:18:26.368Z,16.99
2022-10-30T10:19:26.282Z,16.95
2022-10-30T10:20:26.299Z,17.04
2022-10-30T10:21:26.259Z,16.95
2022-10-30T10:22:26.269Z,17.04
2022-10-30T10:23:26.269Z,17.09
2022-10-30T10:24:26.228Z,17.10
2022-10-30T10:25:26.248Z,17.14
2022-10-30T10:26:26.208Z,17.13
2022-10-30T10:27:26.197Z,17.19
2022-10-30T10:28:26.182Z,17.07
2022-10-30T10:29:26.194Z,17.20
2022-10-30T10:30:26.162Z,17.28
2022-10-30T10:31:26.154Z,17.24
2022-10-30T10:32:26.137Z,17.28
2022-10-30T10:33:26.143Z,17.24
2022-10-30T10:34:26.141Z,17.34
2022-10-30T10:35:26.114Z,17.32
2022-10-30T10:36:26.092Z,17.38
2022-10-30T10:37:26.083Z,17.46
2022-10-30T10:38:26.075Z,17.45
2022-10-30T10:39:26.121Z,17.47
2022-10-30T10:40:26.055Z,17.49
2022-10-30T10:41:26.045Z,17.47
2022-10-30T10:42:26.039Z,17.50
2022-10-30T10:43:26.029Z,17.57
2022-10-30T10:44:26.008Z,17.63
2022-10-30T10:45:26.024Z,17.65
2022-10-30T10:46:26.013Z,17.66
2022-10-30T10:47:25.978Z,17.72
2022-10-30T10:48:25.969Z,17.73
2022-10-30T10:49:25.954Z,17.83
2022-10-30T10:50:25.970Z,17.79
2022-10-30T10:51:25.934Z,17.90
2022-10-30T10:52:25.953Z,17.90
2022-10-30T10:53:26.053Z,17.94
2022-10-30T10:54:25.909Z,18.06
2022-10-30T10:55:25.907Z,18.06
2022-10-30T10:56:25.897Z,18.11
2022-10-30T10:57:25.870Z,18.13
2022-10-30T10:58:25.874Z,18.15
2022-10-30T10:59:25.857Z,18.28
2022-10-30T11:00:25.844Z,18.34
2022-10-30T11:01:25.946Z,18.31
2022-10-30T11:02:26.001Z,18.27
2022-10-30T11:03:25.822Z,18.27
2022-10-30T11:04:25.787Z,18.31
2022-10-30T11:05:25.787Z,18.39
2022-10-30T11:06:25.769Z,18.42
2022-10-30T11:07:25.757Z,18.48
2022-10-30T11:08:25.770Z,18.46
2022-10-30T11:09:25.760Z,18.61
2022-10-30T11:10:25.732Z,18.56
2022-10-30T11:11:25.734Z,18.67
2022-10-30T11:12:25.701Z,18.68
2022-10-30T11:13:25.700Z,18.83
2022-10-30T11:14:25.698Z,18.78
2022-10-30T11:15:25.675Z,18.94
2022-10-30T11:16:25.657Z,18.91
2022-10-30T11:17:25.644Z,18.88
2022-10-30T11:18:25.655Z,18.85
2022-10-30T11:19:25.624Z,19.04
2022-10-30T11:20:25.628Z,19.00
2022-10-30T11:21:25.624Z,19.09
2022-10-30T11:22:25.590Z,19.16
2022-10-30T11:23:25.605Z,19.20
2022-10-30T11:24:25.572Z,19.26
2022-10-30T11:25:28.598Z,19.26
2022-10-30T11:26:25.549Z,19.32
2022-10-30T11:27:25.557Z,19.38
2022-10-30T11:28:25.524Z,19.37
2022-10-30T11:29:25.545Z,19.41
2022-10-30T11:30:25.504Z,19.45
2022-10-30T11:31:25.493Z,19.53
2022-10-30T11:32:25.510Z,19.57
2022-10-30T11:33:25.469Z,19.62
2022-10-30T11:34:25.457Z,19.68
2022-10-30T11:35:25.444Z,19.75
2022-10-30T11:36:25.438Z,19.78
2022-10-30T11:37:25.453Z,19.78
2022-10-30T11:38:25.419Z,19.86
2022-10-30T11:39:25.404Z,19.87
2022-10-30T11:40:25.424Z,19.90
2022-10-30T11:41:25.382Z,19.97
2022-10-30T11:42:25.367Z,20.07
2022-10-30T11:43:25.382Z,20.02
2022-10-30T11:44:25.350Z,20.07
2022-10-30T11:45:25.337Z,20.12
2022-10-30T11:46:25.349Z,20.14
2022-10-30T11:47:25.371Z,20.19
2022-10-30T11:48:26.058Z,20.18
2022-10-30T11:49:25.301Z,20.30
2022-10-30T11:50:25.283Z,20.32
2022-10-30T11:51:25.337Z,20.37
2022-10-30T11:52:25.267Z,20.36
2022-10-30T11:53:25.282Z,20.29
2022-10-30T11:54:25.237Z,20.36
2022-10-30T11:55:25.233Z,20.41
2022-10-30T11:56:25.228Z,20.42
2022-10-30T11:57:25.212Z,20.37
2022-10-30T11:58:25.230Z,20.42
2022-10-30T11:59:25.207Z,20.50
2022-10-30T12:00:25.174Z,20.56
2022-10-30T12:01:25.250Z,20.58
2022-10-30T12:02:25.330Z,20.67
2022-10-30T12:03:25.163Z,20.60
2022-10-30T12:04:25.134Z,20.64
2022-10-30T12:05:25.125Z,20.70
2022-10-30T12:06:25.112Z,20.71
2022-10-30T12:07:25.095Z,20.73
2022-10-30T12:08:25.111Z,20.80
2022-10-30T12:09:25.103Z,20.82
2022-10-30T12:10:25.075Z,20.82
2022-10-30T12:11:25.071Z,20.82
2022-10-30T12:12:25.044Z,20.93
2022-10-30T12:13:25.038Z,20.92
2022-10-30T12:14:25.046Z,20.98
2022-10-30T12:15:25.040Z,20.95
2022-10-30T12:16:25.001Z,20.97
2022-10-30T12:17:24.990Z,21.08
2022-10-30T12:18:25.029Z,21.08
2022-10-30T12:19:24.990Z,21.04
2022-10-30T12:20:24.956Z,21.07
2022-10-30T12:21:24.948Z,21.14
2022-10-30T12:22:24.931Z,21.07
2022-10-30T12:23:24.926Z,21.20
2022-10-30T12:24:24.934Z,21.20
2022-10-30T12:25:24.899Z,21.26
2022-10-30T12:26:24.896Z,21.14
2022-10-30T12:27:24.881Z,21.26
2022-10-30T12:28:24.862Z,21.28
2022-10-30T12:29:36.550Z,21.30
2022-10-30T12:30:25.846Z,21.30
2022-10-30T12:31:24.855Z,21.35
2022-10-30T12:32:24.823Z,21.32
2022-10-30T12:33:24.814Z,21.32
2022-10-30T12:34:24.818Z,21.35
2022-10-30T12:35:24.791Z,21.34
2022-10-30T12:36:24.781Z,21.29
2022-10-30T12:37:24.767Z,21.37
2022-10-30T12:38:24.753Z,21.37
2022-10-30T12:39:24.760Z,21.44
2022-10-30T12:40:24.727Z,21.45
2022-10-30T12:41:24.718Z,21.41
2022-10-30T12:42:24.707Z,21.47
2022-10-30T12:43:24.696Z,21.41
2022-10-30T12:44:24.713Z,21.50
2022-10-30T12:45:24.676Z,21.51
2022-10-30T12:46:24.667Z,21.44
2022-10-30T12:47:24.671Z,21.45
2022-10-30T12:48:24.641Z,21.53
2022-10-30T12:49:24.626Z,21.56
2022-10-30T12:50:24.641Z,21.53
2022-10-30T12:51:24.626Z,21.51
2022-10-30T12:52:24.616Z,21.59
2022-10-30T12:53:24.590Z,21.63
2022-10-30T12:54:24.577Z,21.59